sensor_id;sensor_type;location;lat;lon;timestamp;P1;durP1;ratioP1;P2;durP2;ratioP2
80213;SDS011;69531;37.974;23.708;2023-05-10T00:00:57;7.68;;;3.08;;
80213;SDS011;69531;37.974;23.708;2023-05-10T00:03:23;5.55;;;2.78;;
80213;SDS011;69531;37.974;23.708;2023-05-10T00:05:49;6.05;;;2.80;;
80213;SDS011;69531;37.974;23.708;2023-05-10T00:08:15;8.30;;;3.30;;
80213;SDS011;69531;37.974;23.708;2023-05-10T00:10:40;4.85;;;2.80;;
80213;SDS011;69531;37.974;23.708;2023-05-10T00:13:06;5.78;;;2.80;;
80213;SDS011;69531;37.974;23.708;2023-05-10T00:15:32;5.32;;;3.00;;
80213;SDS011;69531;37.974;23.708;2023-05-10T00:17:58;7.18;;;2.58;;
80213;SDS011;69531;37.974;23.708;2023-05-10T00:20:23;5.50;;;2.72;;
80213;SDS011;69531;37.974;23.708;2023-05-10T00:22:49;7.15;;;3.10;;
80213;SDS011;69531;37.974;23.708;2023-05-10T00:25:15;7.25;;;3.00;;
80213;SDS011;69531;37.974;23.708;2023-05-10T00:27:40;5.70;;;2.75;;
80213;SDS011;69531;37.974;23.708;2023-05-10T00:30:06;5.22;;;3.20;;
80213;SDS011;69531;37.974;23.708;2023-05-10T00:32:32;5.72;;;2.70;;
80213;SDS011;69531;37.974;23.708;2023-05-10T00:34:58;7.32;;;2.72;;
80213;SDS011;69531;37.974;23.708;2023-05-10T00:37:24;4.82;;;2.60;;
80213;SDS011;69531;37.974;23.708;2023-05-10T00:39:49;6.93;;;3.70;;
80213;SDS011;69531;37.974;23.708;2023-05-10T00:42:15;6.43;;;2.95;;
80213;SDS011;69531;37.974;23.708;2023-05-10T00:44:41;6.25;;;3.00;;
80213;SDS011;69531;37.974;23.708;2023-05-10T00:47:07;5.20;;;2.80;;
80213;SDS011;69531;37.974;23.708;2023-05-10T00:49:34;5.88;;;2.92;;
80213;SDS011;69531;37.974;23.708;2023-05-10T00:52:00;6.05;;;2.90;;
80213;SDS011;69531;37.974;23.708;2023-05-10T00:54:27;6.70;;;2.83;;
80213;SDS011;69531;37.974;23.708;2023-05-10T00:56:53;6.55;;;2.92;;
80213;SDS011;69531;37.974;23.708;2023-05-10T00:59:19;5.35;;;2.60;;
80213;SDS011;69531;37.974;23.708;2023-05-10T01:01:45;7.07;;;2.75;;
80213;SDS011;69531;37.974;23.708;2023-05-10T01:04:12;6.57;;;2.88;;
80213;SDS011;69531;37.974;23.708;2023-05-10T01:06:39;7.25;;;2.70;;
80213;SDS011;69531;37.974;23.708;2023-05-10T01:09:05;6.35;;;2.85;;
80213;SDS011;69531;37.974;23.708;2023-05-10T01:11:32;4.57;;;2.45;;
80213;SDS011;69531;37.974;23.708;2023-05-10T01:13:59;11.52;;;2.70;;
80213;SDS011;69531;37.974;23.708;2023-05-10T01:16:25;6.47;;;2.42;;
80213;SDS011;69531;37.974;23.708;2023-05-10T01:18:52;6.28;;;2.47;;
80213;SDS011;69531;37.974;23.708;2023-05-10T01:29:47;4.95;;;2.50;;
80213;SDS011;69531;37.974;23.708;2023-05-10T01:38:33;6.32;;;2.30;;
80213;SDS011;69531;37.974;23.708;2023-05-10T01:41:22;5.80;;;2.28;;
80213;SDS011;69531;37.974;23.708;2023-05-10T01:46:40;5.35;;;2.40;;
80213;SDS011;69531;37.974;23.708;2023-05-10T01:49:21;5.35;;;2.30;;
80213;SDS011;69531;37.974;23.708;2023-05-10T01:51:51;5.93;;;2.30;;
80213;SDS011;69531;37.974;23.708;2023-05-10T01:54:20;6.50;;;2.45;;
80213;SDS011;69531;37.974;23.708;2023-05-10T01:56:47;5.80;;;2.60;;
80213;SDS011;69531;37.974;23.708;2023-05-10T01:59:18;4.38;;;2.30;;
80213;SDS011;69531;37.974;23.708;2023-05-10T02:01:45;6.75;;;2.55;;
80213;SDS011;69531;37.974;23.708;2023-05-10T02:04:14;4.03;;;1.80;;
80213;SDS011;69531;37.974;23.708;2023-05-10T02:06:41;4.63;;;2.17;;
80213;SDS011;69531;37.974;23.708;2023-05-10T02:09:09;3.65;;;2.00;;
80213;SDS011;69531;37.974;23.708;2023-05-10T02:11:37;4.20;;;1.83;;
80213;SDS011;69531;37.974;23.708;2023-05-10T02:14:05;5.03;;;2.03;;
80213;SDS011;69531;37.974;23.708;2023-05-10T02:16:34;4.35;;;1.98;;
80213;SDS011;69531;37.974;23.708;2023-05-10T02:19:01;4.20;;;1.85;;
80213;SDS011;69531;37.974;23.708;2023-05-10T02:21:28;5.60;;;2.22;;
80213;SDS011;69531;37.974;23.708;2023-05-10T02:23:55;6.28;;;2.45;;
80213;SDS011;69531;37.974;23.708;2023-05-10T02:26:23;4.72;;;1.90;;
80213;SDS011;69531;37.974;23.708;2023-05-10T02:28:51;4.72;;;1.88;;
80213;SDS011;69531;37.974;23.708;2023-05-10T02:31:18;4.55;;;1.70;;
80213;SDS011;69531;37.974;23.708;2023-05-10T02:33:45;4.68;;;2.10;;
80213;SDS011;69531;37.974;23.708;2023-05-10T02:36:12;4.55;;;1.95;;
80213;SDS011;69531;37.974;23.708;2023-05-10T02:38:40;4.90;;;1.80;;
80213;SDS011;69531;37.974;23.708;2023-05-10T02:41:07;4.93;;;2.10;;
80213;SDS011;69531;37.974;23.708;2023-05-10T02:43:33;5.53;;;1.95;;
80213;SDS011;69531;37.974;23.708;2023-05-10T02:46:00;4.72;;;1.80;;
80213;SDS011;69531;37.974;23.708;2023-05-10T02:48:27;5.22;;;2.00;;
80213;SDS011;69531;37.974;23.708;2023-05-10T02:50:54;4.13;;;1.75;;
80213;SDS011;69531;37.974;23.708;2023-05-10T02:53:30;5.32;;;1.83;;
80213;SDS011;69531;37.974;23.708;2023-05-10T02:55:58;4.47;;;2.00;;
80213;SDS011;69531;37.974;23.708;2023-05-10T02:58:26;5.77;;;2.43;;
80213;SDS011;69531;37.974;23.708;2023-05-10T03:00:52;4.72;;;1.77;;
80213;SDS011;69531;37.974;23.708;2023-05-10T03:03:18;4.13;;;1.75;;
80213;SDS011;69531;37.974;23.708;2023-05-10T03:05:45;6.45;;;1.90;;
80213;SDS011;69531;37.974;23.708;2023-05-10T03:08:10;4.82;;;1.77;;
80213;SDS011;69531;37.974;23.708;2023-05-10T03:10:38;4.47;;;1.60;;
80213;SDS011;69531;37.974;23.708;2023-05-10T03:13:13;4.18;;;1.67;;
80213;SDS011;69531;37.974;23.708;2023-05-10T03:21:35;5.10;;;1.60;;
80213;SDS011;69531;37.974;23.708;2023-05-10T03:24:07;5.05;;;1.70;;
80213;SDS011;69531;37.974;23.708;2023-05-10T03:26:34;5.03;;;1.77;;
80213;SDS011;69531;37.974;23.708;2023-05-10T03:29:02;3.78;;;1.73;;
80213;SDS011;69531;37.974;23.708;2023-05-10T03:31:29;3.63;;;1.50;;
80213;SDS011;69531;37.974;23.708;2023-05-10T03:33:55;4.35;;;1.65;;
80213;SDS011;69531;37.974;23.708;2023-05-10T03:36:20;5.28;;;1.63;;
80213;SDS011;69531;37.974;23.708;2023-05-10T03:38:46;5.63;;;1.70;;
80213;SDS011;69531;37.974;23.708;2023-05-10T03:41:12;3.25;;;1.50;;
80213;SDS011;69531;37.974;23.708;2023-05-10T03:43:38;4.63;;;1.48;;
80213;SDS011;69531;37.974;23.708;2023-05-10T03:46:04;4.68;;;1.70;;
80213;SDS011;69531;37.974;23.708;2023-05-10T03:48:30;5.57;;;1.77;;
80213;SDS011;69531;37.974;23.708;2023-05-10T03:50:57;4.00;;;1.73;;
80213;SDS011;69531;37.974;23.708;2023-05-10T03:53:23;4.55;;;1.60;;
80213;SDS011;69531;37.974;23.708;2023-05-10T03:55:49;3.10;;;1.50;;
80213;SDS011;69531;37.974;23.708;2023-05-10T03:58:14;4.50;;;1.73;;
80213;SDS011;69531;37.974;23.708;2023-05-10T04:00:40;4.47;;;1.58;;
80213;SDS011;69531;37.974;23.708;2023-05-10T04:03:12;4.68;;;1.58;;
80213;SDS011;69531;37.974;23.708;2023-05-10T04:05:38;4.43;;;1.70;;
80213;SDS011;69531;37.974;23.708;2023-05-10T04:08:04;5.47;;;1.45;;
80213;SDS011;69531;37.974;23.708;2023-05-10T04:10:30;5.65;;;1.80;;
80213;SDS011;69531;37.974;23.708;2023-05-10T04:12:56;4.53;;;1.63;;
80213;SDS011;69531;37.974;23.708;2023-05-10T04:15:22;4.10;;;1.67;;
80213;SDS011;69531;37.974;23.708;2023-05-10T04:17:49;3.72;;;1.60;;
80213;SDS011;69531;37.974;23.708;2023-05-10T04:20:15;4.55;;;1.73;;
80213;SDS011;69531;37.974;23.708;2023-05-10T04:22:41;7.50;;;2.00;;
80213;SDS011;69531;37.974;23.708;2023-05-10T04:25:07;23.40;;;2.58;;
80213;SDS011;69531;37.974;23.708;2023-05-10T04:27:33;12.40;;;1.95;;
80213;SDS011;69531;37.974;23.708;2023-05-10T04:29:59;12.52;;;2.75;;
80213;SDS011;69531;37.974;23.708;2023-05-10T04:32:25;14.02;;;2.28;;
80213;SDS011;69531;37.974;23.708;2023-05-10T04:34:50;12.65;;;2.10;;
80213;SDS011;69531;37.974;23.708;2023-05-10T04:37:16;11.88;;;2.33;;
80213;SDS011;69531;37.974;23.708;2023-05-10T04:39:42;19.50;;;2.50;;
80213;SDS011;69531;37.974;23.708;2023-05-10T04:42:08;11.23;;;2.45;;
80213;SDS011;69531;37.974;23.708;2023-05-10T04:44:35;12.18;;;2.30;;
80213;SDS011;69531;37.974;23.708;2023-05-10T04:47:01;10.10;;;2.17;;
80213;SDS011;69531;37.974;23.708;2023-05-10T04:49:28;8.30;;;2.33;;
80213;SDS011;69531;37.974;23.708;2023-05-10T04:51:54;8.45;;;2.10;;
80213;SDS011;69531;37.974;23.708;2023-05-10T04:54:20;7.78;;;2.42;;
80213;SDS011;69531;37.974;23.708;2023-05-10T04:56:46;10.40;;;1.90;;
80213;SDS011;69531;37.974;23.708;2023-05-10T04:59:12;6.60;;;2.25;;
80213;SDS011;69531;37.974;23.708;2023-05-10T05:01:38;6.72;;;2.00;;
80213;SDS011;69531;37.974;23.708;2023-05-10T05:04:04;7.20;;;2.05;;
80213;SDS011;69531;37.974;23.708;2023-05-10T05:06:30;7.97;;;1.85;;
80213;SDS011;69531;37.974;23.708;2023-05-10T05:08:55;4.55;;;2.15;;
80213;SDS011;69531;37.974;23.708;2023-05-10T05:11:21;6.07;;;2.17;;
80213;SDS011;69531;37.974;23.708;2023-05-10T05:13:47;6.43;;;1.90;;
80213;SDS011;69531;37.974;23.708;2023-05-10T05:16:13;8.57;;;1.67;;
80213;SDS011;69531;37.974;23.708;2023-05-10T05:18:38;4.72;;;2.00;;
80213;SDS011;69531;37.974;23.708;2023-05-10T05:21:14;5.38;;;1.83;;
80213;SDS011;69531;37.974;23.708;2023-05-10T05:23:41;6.00;;;1.85;;
80213;SDS011;69531;37.974;23.708;2023-05-10T05:26:06;7.05;;;2.40;;
80213;SDS011;69531;37.974;23.708;2023-05-10T05:28:32;5.70;;;2.05;;
80213;SDS011;69531;37.974;23.708;2023-05-10T05:31:02;4.32;;;1.55;;
80213;SDS011;69531;37.974;23.708;2023-05-10T05:33:30;5.55;;;2.00;;
80213;SDS011;69531;37.974;23.708;2023-05-10T05:35:56;3.72;;;1.60;;
80213;SDS011;69531;37.974;23.708;2023-05-10T05:38:22;4.07;;;1.85;;
80213;SDS011;69531;37.974;23.708;2023-05-10T05:40:48;5.70;;;1.60;;
80213;SDS011;69531;37.974;23.708;2023-05-10T05:43:14;4.10;;;1.50;;
80213;SDS011;69531;37.974;23.708;2023-05-10T05:45:40;3.42;;;1.40;;
80213;SDS011;69531;37.974;23.708;2023-05-10T05:48:06;5.05;;;1.60;;
80213;SDS011;69531;37.974;23.708;2023-05-10T05:50:31;3.50;;;1.75;;
80213;SDS011;69531;37.974;23.708;2023-05-10T05:52:57;4.75;;;1.70;;
80213;SDS011;69531;37.974;23.708;2023-05-10T05:55:23;6.15;;;1.88;;
80213;SDS011;69531;37.974;23.708;2023-05-10T05:57:49;6.00;;;1.80;;
80213;SDS011;69531;37.974;23.708;2023-05-10T06:00:15;2.63;;;1.80;;
80213;SDS011;69531;37.974;23.708;2023-05-10T06:02:41;3.08;;;1.67;;
80213;SDS011;69531;37.974;23.708;2023-05-10T06:05:06;7.50;;;1.80;;
80213;SDS011;69531;37.974;23.708;2023-05-10T06:07:33;6.53;;;1.60;;
80213;SDS011;69531;37.974;23.708;2023-05-10T06:09:58;2.88;;;1.52;;
80213;SDS011;69531;37.974;23.708;2023-05-10T06:12:24;3.92;;;1.48;;
80213;SDS011;69531;37.974;23.708;2023-05-10T06:14:50;4.57;;;1.80;;
80213;SDS011;69531;37.974;23.708;2023-05-10T06:17:16;5.50;;;1.65;;
80213;SDS011;69531;37.974;23.708;2023-05-10T06:19:41;5.18;;;1.80;;
80213;SDS011;69531;37.974;23.708;2023-05-10T06:22:07;3.85;;;1.73;;
80213;SDS011;69531;37.974;23.708;2023-05-10T06:24:33;4.25;;;1.70;;
80213;SDS011;69531;37.974;23.708;2023-05-10T06:26:58;6.70;;;2.42;;
80213;SDS011;69531;37.974;23.708;2023-05-10T06:29:25;3.97;;;1.52;;
80213;SDS011;69531;37.974;23.708;2023-05-10T06:31:51;5.07;;;1.75;;
80213;SDS011;69531;37.974;23.708;2023-05-10T06:34:17;5.63;;;1.63;;
80213;SDS011;69531;37.974;23.708;2023-05-10T06:36:42;4.78;;;1.60;;
80213;SDS011;69531;37.974;23.708;2023-05-10T06:39:08;6.05;;;1.80;;
80213;SDS011;69531;37.974;23.708;2023-05-10T06:41:34;4.80;;;1.40;;
80213;SDS011;69531;37.974;23.708;2023-05-10T06:44:00;4.20;;;1.60;;
80213;SDS011;69531;37.974;23.708;2023-05-10T06:46:25;6.00;;;1.70;;
80213;SDS011;69531;37.974;23.708;2023-05-10T06:48:51;4.22;;;1.83;;
80213;SDS011;69531;37.974;23.708;2023-05-10T06:51:17;3.30;;;1.80;;
80213;SDS011;69531;37.974;23.708;2023-05-10T06:53:43;4.85;;;1.58;;
80213;SDS011;69531;37.974;23.708;2023-05-10T06:56:08;4.10;;;1.30;;
80213;SDS011;69531;37.974;23.708;2023-05-10T06:58:34;4.50;;;1.70;;
80213;SDS011;69531;37.974;23.708;2023-05-10T07:01:03;3.55;;;1.75;;
80213;SDS011;69531;37.974;23.708;2023-05-10T07:03:30;4.18;;;1.63;;
80213;SDS011;69531;37.974;23.708;2023-05-10T07:06:03;4.82;;;1.67;;
80213;SDS011;69531;37.974;23.708;2023-05-10T07:08:32;4.10;;;1.60;;
80213;SDS011;69531;37.974;23.708;2023-05-10T07:11:05;3.50;;;1.73;;
80213;SDS011;69531;37.974;23.708;2023-05-10T07:13:35;2.80;;;1.48;;
80213;SDS011;69531;37.974;23.708;2023-05-10T07:16:01;3.38;;;1.73;;
80213;SDS011;69531;37.974;23.708;2023-05-10T07:18:27;5.78;;;1.52;;
80213;SDS011;69531;37.974;23.708;2023-05-10T07:20:53;5.53;;;1.73;;
80213;SDS011;69531;37.974;23.708;2023-05-10T07:23:20;3.95;;;1.70;;
80213;SDS011;69531;37.974;23.708;2023-05-10T07:25:48;4.28;;;1.80;;
80213;SDS011;69531;37.974;23.708;2023-05-10T07:28:16;4.80;;;1.67;;
80213;SDS011;69531;37.974;23.708;2023-05-10T07:30:42;3.63;;;2.03;;
80213;SDS011;69531;37.974;23.708;2023-05-10T07:33:09;4.05;;;1.75;;
80213;SDS011;69531;37.974;23.708;2023-05-10T07:35:36;3.75;;;1.90;;
80213;SDS011;69531;37.974;23.708;2023-05-10T07:38:02;3.47;;;1.60;;
80213;SDS011;69531;37.974;23.708;2023-05-10T07:40:28;4.80;;;1.85;;
80213;SDS011;69531;37.974;23.708;2023-05-10T07:42:54;4.13;;;1.88;;
80213;SDS011;69531;37.974;23.708;2023-05-10T07:45:20;3.97;;;1.73;;
80213;SDS011;69531;37.974;23.708;2023-05-10T07:47:46;5.55;;;1.90;;
80213;SDS011;69531;37.974;23.708;2023-05-10T07:50:11;5.40;;;1.75;;
80213;SDS011;69531;37.974;23.708;2023-05-10T07:52:37;3.95;;;1.65;;
80213;SDS011;69531;37.974;23.708;2023-05-10T07:55:03;4.80;;;1.95;;
80213;SDS011;69531;37.974;23.708;2023-05-10T07:57:29;5.93;;;2.10;;
80213;SDS011;69531;37.974;23.708;2023-05-10T07:59:55;3.75;;;1.80;;
80213;SDS011;69531;37.974;23.708;2023-05-10T08:02:21;4.32;;;2.20;;
80213;SDS011;69531;37.974;23.708;2023-05-10T08:04:47;5.90;;;2.00;;
80213;SDS011;69531;37.974;23.708;2023-05-10T08:07:12;4.10;;;1.70;;
80213;SDS011;69531;37.974;23.708;2023-05-10T08:09:38;6.32;;;2.00;;
80213;SDS011;69531;37.974;23.708;2023-05-10T08:12:04;5.60;;;2.00;;
80213;SDS011;69531;37.974;23.708;2023-05-10T08:14:30;5.53;;;1.80;;
80213;SDS011;69531;37.974;23.708;2023-05-10T08:16:55;4.50;;;1.60;;
80213;SDS011;69531;37.974;23.708;2023-05-10T08:19:21;2.83;;;1.60;;
80213;SDS011;69531;37.974;23.708;2023-05-10T08:21:47;4.28;;;1.90;;
80213;SDS011;69531;37.974;23.708;2023-05-10T08:24:13;4.90;;;1.90;;
80213;SDS011;69531;37.974;23.708;2023-05-10T08:26:39;5.55;;;2.53;;
80213;SDS011;69531;37.974;23.708;2023-05-10T08:29:05;5.70;;;2.05;;
80213;SDS011;69531;37.974;23.708;2023-05-10T08:31:31;4.60;;;1.80;;
80213;SDS011;69531;37.974;23.708;2023-05-10T08:33:56;6.47;;;2.00;;
80213;SDS011;69531;37.974;23.708;2023-05-10T08:36:22;3.75;;;2.10;;
80213;SDS011;69531;37.974;23.708;2023-05-10T08:38:52;4.63;;;1.83;;
80213;SDS011;69531;37.974;23.708;2023-05-10T08:41:22;4.53;;;1.88;;
80213;SDS011;69531;37.974;23.708;2023-05-10T08:43:53;5.10;;;1.90;;
80213;SDS011;69531;37.974;23.708;2023-05-10T08:46:19;5.05;;;1.88;;
80213;SDS011;69531;37.974;23.708;2023-05-10T08:48:47;7.10;;;2.00;;
80213;SDS011;69531;37.974;23.708;2023-05-10T08:51:17;4.05;;;1.73;;
80213;SDS011;69531;37.974;23.708;2023-05-10T08:53:46;3.92;;;1.77;;
80213;SDS011;69531;37.974;23.708;2023-05-10T08:56:13;4.50;;;1.80;;
80213;SDS011;69531;37.974;23.708;2023-05-10T08:58:40;4.32;;;1.75;;
80213;SDS011;69531;37.974;23.708;2023-05-10T09:01:06;6.30;;;1.90;;
80213;SDS011;69531;37.974;23.708;2023-05-10T09:03:33;5.25;;;2.13;;
80213;SDS011;69531;37.974;23.708;2023-05-10T09:06:00;3.90;;;1.88;;
80213;SDS011;69531;37.974;23.708;2023-05-10T09:08:26;5.78;;;2.00;;
80213;SDS011;69531;37.974;23.708;2023-05-10T09:10:52;2.95;;;1.63;;
80213;SDS011;69531;37.974;23.708;2023-05-10T09:13:19;3.47;;;1.70;;
80213;SDS011;69531;37.974;23.708;2023-05-10T09:15:47;5.30;;;1.98;;
80213;SDS011;69531;37.974;23.708;2023-05-10T09:18:13;5.40;;;1.90;;
80213;SDS011;69531;37.974;23.708;2023-05-10T09:20:39;5.63;;;1.50;;
80213;SDS011;69531;37.974;23.708;2023-05-10T09:23:06;4.35;;;1.80;;
80213;SDS011;69531;37.974;23.708;2023-05-10T09:25:32;4.65;;;1.83;;
80213;SDS011;69531;37.974;23.708;2023-05-10T09:27:59;3.28;;;1.90;;
80213;SDS011;69531;37.974;23.708;2023-05-10T09:30:25;4.75;;;1.95;;
80213;SDS011;69531;37.974;23.708;2023-05-10T09:32:53;4.65;;;1.88;;
80213;SDS011;69531;37.974;23.708;2023-05-10T09:35:21;5.35;;;2.05;;
80213;SDS011;69531;37.974;23.708;2023-05-10T09:37:49;5.63;;;1.70;;
80213;SDS011;69531;37.974;23.708;2023-05-10T09:40:20;4.80;;;1.70;;
80213;SDS011;69531;37.974;23.708;2023-05-10T09:42:57;7.38;;;1.98;;
80213;SDS011;69531;37.974;23.708;2023-05-10T09:45:24;5.88;;;1.85;;
80213;SDS011;69531;37.974;23.708;2023-05-10T09:47:55;6.20;;;1.90;;
80213;SDS011;69531;37.974;23.708;2023-05-10T09:50:21;4.10;;;1.67;;
80213;SDS011;69531;37.974;23.708;2023-05-10T09:52:49;4.00;;;1.63;;
80213;SDS011;69531;37.974;23.708;2023-05-10T09:55:22;4.82;;;1.90;;
80213;SDS011;69531;37.974;23.708;2023-05-10T09:57:50;5.60;;;2.00;;
80213;SDS011;69531;37.974;23.708;2023-05-10T10:00:24;3.30;;;1.77;;
80213;SDS011;69531;37.974;23.708;2023-05-10T10:02:55;3.42;;;1.48;;
80213;SDS011;69531;37.974;23.708;2023-05-10T10:05:30;3.78;;;1.70;;
80213;SDS011;69531;37.974;23.708;2023-05-10T10:07:57;4.65;;;1.50;;
80213;SDS011;69531;37.974;23.708;2023-05-10T10:10:26;5.95;;;1.90;;
80213;SDS011;69531;37.974;23.708;2023-05-10T10:12:53;4.93;;;2.10;;
80213;SDS011;69531;37.974;23.708;2023-05-10T10:15:20;2.95;;;1.50;;
80213;SDS011;69531;37.974;23.708;2023-05-10T10:17:46;3.22;;;1.70;;
80213;SDS011;69531;37.974;23.708;2023-05-10T10:20:14;6.68;;;1.88;;
80213;SDS011;69531;37.974;23.708;2023-05-10T10:22:40;3.67;;;1.67;;
80213;SDS011;69531;37.974;23.708;2023-05-10T10:25:07;5.28;;;2.10;;
80213;SDS011;69531;37.974;23.708;2023-05-10T10:36:20;3.65;;;1.38;;
80213;SDS011;69531;37.974;23.708;2023-05-10T10:47:00;3.55;;;1.50;;
80213;SDS011;69531;37.974;23.708;2023-05-10T10:54:40;5.47;;;1.80;;
80213;SDS011;69531;37.974;23.708;2023-05-10T10:57:10;4.10;;;1.98;;
80213;SDS011;69531;37.974;23.708;2023-05-10T10:59:43;5.35;;;1.70;;
80213;SDS011;69531;37.974;23.708;2023-05-10T11:02:09;3.67;;;1.73;;
80213;SDS011;69531;37.974;23.708;2023-05-10T11:04:41;4.97;;;1.63;;
80213;SDS011;69531;37.974;23.708;2023-05-10T11:07:18;8.05;;;1.80;;
80213;SDS011;69531;37.974;23.708;2023-05-10T11:09:45;3.95;;;1.65;;
80213;SDS011;69531;37.974;23.708;2023-05-10T11:12:12;5.60;;;1.83;;
80213;SDS011;69531;37.974;23.708;2023-05-10T11:14:38;3.40;;;1.50;;
80213;SDS011;69531;37.974;23.708;2023-05-10T11:20:03;5.30;;;1.50;;
80213;SDS011;69531;37.974;23.708;2023-05-10T11:22:48;6.28;;;1.50;;
80213;SDS011;69531;37.974;23.708;2023-05-10T11:25:18;3.03;;;1.58;;
80213;SDS011;69531;37.974;23.708;2023-05-10T11:27:44;3.28;;;1.70;;
80213;SDS011;69531;37.974;23.708;2023-05-10T11:30:12;3.45;;;1.40;;
80213;SDS011;69531;37.974;23.708;2023-05-10T11:32:38;3.95;;;1.65;;
80213;SDS011;69531;37.974;23.708;2023-05-10T11:35:09;6.05;;;1.80;;
80213;SDS011;69531;37.974;23.708;2023-05-10T11:37:35;5.75;;;1.60;;
80213;SDS011;69531;37.974;23.708;2023-05-10T11:40:01;4.32;;;1.90;;
80213;SDS011;69531;37.974;23.708;2023-05-10T11:42:31;4.43;;;1.73;;
80213;SDS011;69531;37.974;23.708;2023-05-10T11:44:57;3.03;;;1.48;;
80213;SDS011;69531;37.974;23.708;2023-05-10T11:47:23;3.42;;;1.60;;
80213;SDS011;69531;37.974;23.708;2023-05-10T11:49:48;4.18;;;1.67;;
80213;SDS011;69531;37.974;23.708;2023-05-10T11:52:19;2.92;;;1.50;;
80213;SDS011;69531;37.974;23.708;2023-05-10T11:54:51;4.07;;;1.75;;
80213;SDS011;69531;37.974;23.708;2023-05-10T11:57:18;4.93;;;1.85;;
80213;SDS011;69531;37.974;23.708;2023-05-10T11:59:46;5.72;;;1.90;;
80213;SDS011;69531;37.974;23.708;2023-05-10T12:02:15;3.33;;;1.50;;
80213;SDS011;69531;37.974;23.708;2023-05-10T12:04:41;3.00;;;1.70;;
80213;SDS011;69531;37.974;23.708;2023-05-10T12:07:07;4.07;;;1.58;;
80213;SDS011;69531;37.974;23.708;2023-05-10T12:09:32;4.15;;;1.73;;
80213;SDS011;69531;37.974;23.708;2023-05-10T12:11:58;5.38;;;1.77;;
80213;SDS011;69531;37.974;23.708;2023-05-10T12:14:25;5.28;;;1.90;;
80213;SDS011;69531;37.974;23.708;2023-05-10T12:16:51;3.33;;;1.48;;
80213;SDS011;69531;37.974;23.708;2023-05-10T12:19:20;5.38;;;1.85;;
80213;SDS011;69531;37.974;23.708;2023-05-10T12:21:46;5.85;;;1.77;;
80213;SDS011;69531;37.974;23.708;2023-05-10T12:24:12;2.80;;;1.60;;
80213;SDS011;69531;37.974;23.708;2023-05-10T12:26:41;4.38;;;1.67;;
80213;SDS011;69531;37.974;23.708;2023-05-10T12:29:16;4.57;;;1.70;;
80213;SDS011;69531;37.974;23.708;2023-05-10T12:31:53;3.17;;;1.50;;
80213;SDS011;69531;37.974;23.708;2023-05-10T12:34:33;4.43;;;1.63;;
80213;SDS011;69531;37.974;23.708;2023-05-10T12:37:01;4.72;;;1.70;;
80213;SDS011;69531;37.974;23.708;2023-05-10T12:39:40;3.15;;;1.75;;
80213;SDS011;69531;37.974;23.708;2023-05-10T12:42:07;4.47;;;1.70;;
80213;SDS011;69531;37.974;23.708;2023-05-10T12:44:33;3.63;;;1.70;;
80213;SDS011;69531;37.974;23.708;2023-05-10T12:46:59;3.67;;;1.80;;
80213;SDS011;69531;37.974;23.708;2023-05-10T12:49:24;3.95;;;1.70;;
80213;SDS011;69531;37.974;23.708;2023-05-10T12:51:50;5.97;;;1.95;;
80213;SDS011;69531;37.974;23.708;2023-05-10T12:54:16;4.75;;;1.83;;
80213;SDS011;69531;37.974;23.708;2023-05-10T12:56:42;3.47;;;1.90;;
80213;SDS011;69531;37.974;23.708;2023-05-10T12:59:08;3.63;;;1.75;;
80213;SDS011;69531;37.974;23.708;2023-05-10T13:01:34;3.47;;;1.77;;
80213;SDS011;69531;37.974;23.708;2023-05-10T13:03:59;3.17;;;1.52;;
80213;SDS011;69531;37.974;23.708;2023-05-10T13:06:25;6.90;;;1.63;;
80213;SDS011;69531;37.974;23.708;2023-05-10T13:08:51;3.75;;;1.70;;
80213;SDS011;69531;37.974;23.708;2023-05-10T13:11:17;3.40;;;1.60;;
80213;SDS011;69531;37.974;23.708;2023-05-10T13:13:44;3.78;;;1.70;;
80213;SDS011;69531;37.974;23.708;2023-05-10T13:16:10;3.53;;;1.40;;
80213;SDS011;69531;37.974;23.708;2023-05-10T13:18:36;4.93;;;1.63;;
80213;SDS011;69531;37.974;23.708;2023-05-10T13:21:01;6.10;;;2.00;;
80213;SDS011;69531;37.974;23.708;2023-05-10T13:23:30;5.60;;;1.55;;
80213;SDS011;69531;37.974;23.708;2023-05-10T13:25:56;5.22;;;1.75;;
80213;SDS011;69531;37.974;23.708;2023-05-10T13:28:21;4.72;;;1.60;;
80213;SDS011;69531;37.974;23.708;2023-05-10T13:30:47;2.92;;;1.75;;
80213;SDS011;69531;37.974;23.708;2023-05-10T13:33:13;5.38;;;1.85;;
80213;SDS011;69531;37.974;23.708;2023-05-10T13:35:39;2.95;;;1.50;;
80213;SDS011;69531;37.974;23.708;2023-05-10T13:38:04;2.67;;;1.40;;
80213;SDS011;69531;37.974;23.708;2023-05-10T13:40:32;4.43;;;1.33;;
80213;SDS011;69531;37.974;23.708;2023-05-10T13:42:58;5.57;;;1.75;;
80213;SDS011;69531;37.974;23.708;2023-05-10T13:45:24;3.55;;;1.90;;
80213;SDS011;69531;37.974;23.708;2023-05-10T13:47:50;4.10;;;1.95;;
80213;SDS011;69531;37.974;23.708;2023-05-10T13:50:17;6.85;;;2.10;;
80213;SDS011;69531;37.974;23.708;2023-05-10T13:52:43;6.00;;;3.00;;
80213;SDS011;69531;37.974;23.708;2023-05-10T13:55:09;11.02;;;6.05;;
80213;SDS011;69531;37.974;23.708;2023-05-10T13:57:37;12.75;;;8.43;;
80213;SDS011;69531;37.974;23.708;2023-05-10T14:00:03;21.35;;;15.43;;
80213;SDS011;69531;37.974;23.708;2023-05-10T14:02:29;19.25;;;14.18;;
80213;SDS011;69531;37.974;23.708;2023-05-10T14:04:55;23.98;;;16.70;;
80213;SDS011;69531;37.974;23.708;2023-05-10T14:07:21;25.90;;;20.52;;
80213;SDS011;69531;37.974;23.708;2023-05-10T14:09:47;25.40;;;18.08;;
80213;SDS011;69531;37.974;23.708;2023-05-10T14:12:12;28.92;;;21.70;;
80213;SDS011;69531;37.974;23.708;2023-05-10T14:14:39;28.35;;;20.95;;
80213;SDS011;69531;37.974;23.708;2023-05-10T14:17:05;26.33;;;19.65;;
80213;SDS011;69531;37.974;23.708;2023-05-10T14:19:31;26.25;;;18.92;;
80213;SDS011;69531;37.974;23.708;2023-05-10T14:21:58;22.58;;;16.90;;
80213;SDS011;69531;37.974;23.708;2023-05-10T14:24:24;20.65;;;14.30;;
80213;SDS011;69531;37.974;23.708;2023-05-10T14:26:50;19.00;;;13.55;;
80213;SDS011;69531;37.974;23.708;2023-05-10T14:29:18;19.80;;;12.65;;
80213;SDS011;69531;37.974;23.708;2023-05-10T14:31:45;14.40;;;10.98;;
80213;SDS011;69531;37.974;23.708;2023-05-10T14:34:11;13.48;;;9.60;;
80213;SDS011;69531;37.974;23.708;2023-05-10T14:36:36;12.70;;;9.05;;
80213;SDS011;69531;37.974;23.708;2023-05-10T14:39:02;12.43;;;7.60;;
80213;SDS011;69531;37.974;23.708;2023-05-10T14:41:28;10.93;;;6.88;;
80213;SDS011;69531;37.974;23.708;2023-05-10T14:43:55;11.68;;;6.57;;
80213;SDS011;69531;37.974;23.708;2023-05-10T14:46:20;10.50;;;5.80;;
80213;SDS011;69531;37.974;23.708;2023-05-10T14:48:46;9.77;;;5.38;;
80213;SDS011;69531;37.974;23.708;2023-05-10T14:51:12;10.50;;;5.20;;
80213;SDS011;69531;37.974;23.708;2023-05-10T14:53:38;8.18;;;4.60;;
80213;SDS011;69531;37.974;23.708;2023-05-10T14:56:04;8.50;;;4.20;;
80213;SDS011;69531;37.974;23.708;2023-05-10T14:58:30;7.40;;;3.83;;
80213;SDS011;69531;37.974;23.708;2023-05-10T15:00:55;7.15;;;3.88;;
80213;SDS011;69531;37.974;23.708;2023-05-10T15:03:22;6.68;;;3.65;;
80213;SDS011;69531;37.974;23.708;2023-05-10T15:05:48;6.78;;;3.13;;
80213;SDS011;69531;37.974;23.708;2023-05-10T15:08:13;8.75;;;3.15;;
80213;SDS011;69531;37.974;23.708;2023-05-10T15:10:39;6.85;;;3.22;;
80213;SDS011;69531;37.974;23.708;2023-05-10T15:13:05;6.90;;;3.50;;
80213;SDS011;69531;37.974;23.708;2023-05-10T15:15:31;6.88;;;3.25;;
80213;SDS011;69531;37.974;23.708;2023-05-10T15:17:57;6.65;;;3.40;;
80213;SDS011;69531;37.974;23.708;2023-05-10T15:20:22;5.53;;;3.08;;